Time;durP1;ratioP1;P1;durP2;ratioP2;P2;SDS_P1;SDS_P2;PMS_P1;PMS_P2;Temp;Humidity;BMP_temperature;BMP_pressure;BME280_temperature;BME280_humidity;BME280_pressure;Samples;Min_cycle;Max_cycle;Signal;HPM_P1;HPM_P2
2024/04/24 00:00:15;;;;;;;4.63;0.50;;;5.30;99.90;;;;;;5347915;26;20028;-94
2024/04/24 00:02:40;;;;;;;3.95;1.00;;;5.30;99.90;;;;;;5361686;26;20019;-94
2024/04/24 00:05:06;;;;;;;4.55;0.32;;;5.30;99.90;;;;;;5379716;26;20004;-93
2024/04/24 00:07:32;;;;;;;2.60;0.30;;;5.30;99.90;;;;;;5350980;26;20152;-93
2024/04/24 00:09:58;;;;;;;6.57;0.47;;;5.30;99.90;;;;;;5360983;26;20055;-94
2024/04/24 00:12:23;;;;;;;2.40;0.25;;;5.30;99.90;;;;;;5350346;26;19997;-94
2024/04/24 00:14:49;;;;;;;1.90;0.20;;;5.20;99.90;;;;;;5345314;26;20360;-93
2024/04/24 00:17:14;;;;;;;3.35;0.30;;;5.20;99.90;;;;;;5354023;26;20023;-93
2024/04/24 00:19:40;;;;;;;4.07;0.30;;;5.10;99.90;;;;;;5344472;26;20070;-93
2024/04/24 00:22:09;;;;;;;3.00;0.30;;;5.10;99.90;;;;;;5359389;26;20005;-93
2024/04/24 00:24:34;;;;;;;5.47;0.40;;;5.10;99.90;;;;;;5356473;26;20338;-94
2024/04/24 00:27:00;;;;;;;5.43;1.70;;;5.10;99.90;;;;;;5363602;26;20015;-93
2024/04/24 00:29:26;;;;;;;1.88;0.40;;;5.10;99.90;;;;;;5375368;26;20027;-93
2024/04/24 00:31:52;;;;;;;4.88;0.30;;;5.00;99.90;;;;;;5369177;26;20051;-94
2024/04/24 00:34:18;;;;;;;6.20;0.30;;;5.10;99.90;;;;;;5405972;26;20347;-93
2024/04/24 00:36:44;;;;;;;6.80;0.63;;;5.10;99.90;;;;;;5354692;26;19997;-93
2024/04/24 00:39:09;;;;;;;4.65;0.32;;;5.10;99.90;;;;;;5345596;26;20016;-94
2024/04/24 00:41:35;;;;;;;5.75;0.40;;;5.10;99.90;;;;;;5354247;26;20009;-93
2024/04/24 00:44:00;;;;;;;5.47;0.50;;;5.10;99.90;;;;;;5374376;26;20000;-93
2024/04/24 00:46:28;;;;;;;4.72;0.60;;;5.10;99.90;;;;;;5356104;26;20016;-93
2024/04/24 00:48:56;;;;;;;6.18;0.65;;;5.20;99.90;;;;;;5372737;26;20011;-93
2024/04/24 00:51:23;;;;;;;3.75;0.70;;;5.20;99.90;;;;;;5383036;26;20463;-93
2024/04/24 00:53:50;;;;;;;6.53;0.80;;;5.30;99.90;;;;;;5374666;26;20011;-94
2024/04/24 00:56:16;;;;;;;6.28;0.70;;;5.30;99.90;;;;;;5364185;26;20005;-93
2024/04/24 00:58:43;;;;;;;7.43;0.77;;;5.30;99.90;;;;;;5360402;26;20427;-94
2024/04/24 01:01:09;;;;;;;8.13;1.10;;;5.40;99.90;;;;;;5378470;26;20078;-93
2024/04/24 01:03:35;;;;;;;8.98;1.10;;;5.40;99.90;;;;;;5372266;26;20004;-93
2024/04/24 01:06:00;;;;;;;5.90;1.52;;;5.40;99.90;;;;;;5375964;26;20000;-94
2024/04/24 01:08:26;;;;;;;5.85;0.57;;;5.50;99.90;;;;;;5371908;26;20000;-94
2024/04/24 01:10:56;;;;;;;6.97;0.75;;;5.50;99.90;;;;;;5366222;26;20012;-94
2024/04/24 01:13:22;;;;;;;6.00;1.00;;;5.50;99.90;;;;;;5382912;26;20000;-94
2024/04/24 01:15:54;;;;;;;6.65;0.80;;;5.50;99.90;;;;;;5350458;26;19997;-94
2024/04/24 01:18:22;;;;;;;3.15;0.60;;;5.50;99.90;;;;;;5350203;26;20097;-94
2024/04/24 01:20:48;;;;;;;4.97;0.60;;;5.50;99.90;;;;;;5391131;26;20004;-93
2024/04/24 01:23:27;;;;;;;5.65;0.63;;;5.50;99.90;;;;;;5373276;26;20002;-94
2024/04/24 01:26:17;;;;;;;6.60;0.73;;;5.50;99.90;;;;;;5381675;26;20004;-93
2024/04/24 01:28:43;;;;;;;5.40;0.73;;;5.40;99.90;;;;;;5380636;26;20016;-93
2024/04/24 01:31:08;;;;;;;6.05;0.73;;;5.40;99.90;;;;;;5374500;26;20000;-93
2024/04/24 01:33:34;;;;;;;6.05;0.80;;;5.40;99.90;;;;;;5373499;26;20075;-92
2024/04/24 01:35:59;;;;;;;3.78;0.63;;;5.30;99.90;;;;;;5383738;26;20000;-94
2024/04/24 01:38:25;;;;;;;7.13;1.00;;;5.30;99.90;;;;;;5377173;26;20305;-94
2024/04/24 01:40:51;;;;;;;4.53;0.70;;;5.30;99.90;;;;;;5379914;26;20077;-93
2024/04/24 01:43:16;;;;;;;4.13;0.85;;;5.30;99.90;;;;;;5360725;26;20001;-93
2024/04/24 01:45:42;;;;;;;5.53;0.90;;;5.30;99.90;;;;;;5373835;26;20009;-94
2024/04/24 01:48:08;;;;;;;5.05;0.77;;;5.30;99.90;;;;;;5378123;26;20012;-93
2024/04/24 01:50:33;;;;;;;3.85;0.75;;;5.30;99.90;;;;;;5382035;26;20000;-93
2024/04/24 01:52:59;;;;;;;6.13;0.90;;;5.30;99.90;;;;;;5374455;26;20000;-94
2024/04/24 01:55:24;;;;;;;4.03;0.70;;;5.30;99.90;;;;;;5354323;26;20110;-93
2024/04/24 01:57:50;;;;;;;5.22;0.82;;;5.20;99.90;;;;;;5406747;26;20000;-93
2024/04/24 02:00:16;;;;;;;4.85;0.88;;;5.20;99.90;;;;;;5375729;26;20012;-94
2024/04/24 02:02:41;;;;;;;3.75;0.75;;;5.20;99.90;;;;;;5368348;26;20001;-92
2024/04/24 02:05:07;;;;;;;7.93;1.00;;;5.30;99.90;;;;;;5346833;26;20012;-92
2024/04/24 02:07:32;;;;;;;4.80;1.05;;;5.30;99.90;;;;;;5348316;26;20004;-93
2024/04/24 02:09:58;;;;;;;3.95;0.70;;;5.30;99.90;;;;;;5357845;26;20007;-95
2024/04/24 02:12:23;;;;;;;3.22;0.80;;;5.30;99.90;;;;;;5370294;26;20000;-92
2024/04/24 02:14:49;;;;;;;5.75;0.85;;;5.20;99.90;;;;;;5350409;26;20033;-94
2024/04/24 02:17:15;;;;;;;6.55;1.95;;;5.30;99.90;;;;;;5368005;26;19997;-93
2024/04/24 02:19:42;;;;;;;7.00;1.15;;;5.30;99.90;;;;;;5372734;26;20062;-94
2024/04/24 02:22:08;;;;;;;8.10;0.82;;;5.30;99.90;;;;;;5391207;26;20000;-93
2024/04/24 02:27:18;;;;;;;5.55;0.60;;;5.20;99.90;;;;;;5363216;26;20007;-93
2024/04/24 02:29:43;;;;;;;6.90;1.00;;;5.20;99.90;;;;;;5366200;26;19996;-93
2024/04/24 02:32:09;;;;;;;6.53;0.70;;;5.20;99.90;;;;;;5347121;26;20465;-94
2024/04/24 02:34:35;;;;;;;8.55;0.60;;;5.20;99.90;;;;;;5360793;26;20004;-94
2024/04/24 02:37:00;;;;;;;4.68;0.73;;;5.20;99.90;;;;;;5381156;26;19996;-93
2024/04/24 02:39:26;;;;;;;4.50;0.40;;;5.20;99.90;;;;;;5362994;26;20456;-92
2024/04/24 02:41:51;;;;;;;5.07;0.50;;;5.10;99.90;;;;;;5350009;26;20012;-93
2024/04/24 02:44:17;;;;;;;5.57;0.50;;;5.10;99.90;;;;;;5368898;26;20016;-94
2024/04/24 02:46:42;;;;;;;5.25;0.60;;;5.10;99.90;;;;;;5410743;26;20008;-94
2024/04/24 02:49:08;;;;;;;9.52;0.63;;;5.00;99.90;;;;;;5381474;26;20000;-93
2024/04/24 02:51:33;;;;;;;7.38;0.50;;;5.00;99.90;;;;;;5359702;26;20082;-94
2024/04/24 02:53:59;;;;;;;6.20;0.50;;;4.90;99.90;;;;;;5367737;26;20008;-92
2024/04/24 02:56:25;;;;;;;5.55;0.80;;;4.90;99.90;;;;;;5369771;26;20011;-93
2024/04/24 02:58:50;;;;;;;6.40;0.60;;;4.90;99.90;;;;;;5347653;26;20015;-94
2024/04/24 03:01:16;;;;;;;3.25;0.28;;;4.90;99.90;;;;;;5374007;26;20000;-93
2024/04/24 03:03:42;;;;;;;4.45;0.50;;;4.80;99.90;;;;;;5367337;26;20001;-95
2024/04/24 03:06:08;;;;;;;6.00;0.95;;;4.80;99.90;;;;;;5349718;26;20033;-93
2024/04/24 03:08:33;;;;;;;4.00;0.65;;;4.80;99.90;;;;;;5365043;26;20023;-94
2024/04/24 03:10:59;;;;;;;1.60;0.30;;;4.90;99.90;;;;;;5368822;26;19992;-93
2024/04/24 03:13:25;;;;;;;7.45;0.93;;;4.90;99.90;;;;;;5377854;26;20428;-92
2024/04/24 03:15:50;;;;;;;4.63;0.50;;;4.90;99.90;;;;;;5364233;26;20011;-93
2024/04/24 03:18:16;;;;;;;3.53;0.40;;;4.90;99.90;;;;;;5357535;26;20103;-93
2024/04/24 03:20:42;;;;;;;1.92;0.32;;;4.90;99.90;;;;;;5346506;26;20356;-93
2024/04/24 03:23:07;;;;;;;4.78;0.40;;;4.90;99.90;;;;;;5367018;26;20345;-93
2024/04/24 03:25:33;;;;;;;4.65;0.47;;;4.90;99.90;;;;;;5374063;26;20007;-93
2024/04/24 03:27:58;;;;;;;4.25;0.40;;;4.80;99.90;;;;;;5349469;26;20007;-93
2024/04/24 03:30:24;;;;;;;6.55;0.40;;;4.90;99.90;;;;;;5379050;26;19997;-92
2024/04/24 03:32:49;;;;;;;4.70;0.38;;;4.90;99.90;;;;;;5378728;26;20012;-94
2024/04/24 03:35:15;;;;;;;4.05;0.30;;;4.80;99.90;;;;;;5357585;26;20355;-92
2024/04/24 03:37:41;;;;;;;3.53;0.30;;;4.70;99.90;;;;;;5379408;26;20057;-92
2024/04/24 03:40:07;;;;;;;3.15;0.35;;;4.70;99.90;;;;;;5379256;26;20000;-93
2024/04/24 03:42:32;;;;;;;4.03;0.43;;;4.70;99.90;;;;;;5375765;26;20024;-91
2024/04/24 03:44:58;;;;;;;3.65;0.30;;;4.70;99.90;;;;;;5373724;26;20682;-92
2024/04/24 03:47:23;;;;;;;4.97;0.40;;;4.60;99.90;;;;;;5408177;26;19997;-93
2024/04/24 03:49:49;;;;;;;3.80;0.38;;;4.60;99.90;;;;;;5348979;26;20453;-93
2024/04/24 03:52:15;;;;;;;5.80;0.60;;;4.60;99.90;;;;;;5378169;26;20034;-93
2024/04/24 03:54:40;;;;;;;4.28;0.40;;;4.60;99.90;;;;;;5377827;26;20436;-93
2024/04/24 03:57:06;;;;;;;4.93;0.30;;;4.50;99.90;;;;;;5379175;26;20015;-93
2024/04/24 03:59:31;;;;;;;3.40;0.40;;;4.50;99.90;;;;;;5379092;26;19996;-93
2024/04/24 04:01:57;;;;;;;3.88;0.38;;;4.50;99.90;;;;;;5370487;26;20001;-92
2024/04/24 04:04:23;;;;;;;7.10;0.55;;;4.50;99.90;;;;;;5351885;26;20031;-93
2024/04/24 04:06:48;;;;;;;2.80;0.93;;;4.50;99.90;;;;;;5351116;26;20009;-93
2024/04/24 04:09:14;;;;;;;2.75;0.30;;;4.50;99.90;;;;;;5356981;26;20001;-92
2024/04/24 04:11:39;;;;;;;4.53;0.50;;;4.50;99.90;;;;;;5374152;26;20016;-93
2024/04/24 04:14:06;;;;;;;1.98;0.68;;;4.50;99.90;;;;;;5379494;26;20440;-92
2024/04/24 04:16:32;;;;;;;5.57;0.45;;;4.50;99.90;;;;;;5378441;26;20011;-93
2024/04/24 04:18:58;;;;;;;6.32;0.60;;;4.50;99.90;;;;;;5364181;26;20000;-91
2024/04/24 04:21:23;;;;;;;5.38;0.47;;;4.50;99.90;;;;;;5348024;26;20001;-92
2024/04/24 04:23:49;;;;;;;4.70;0.85;;;4.40;99.90;;;;;;5371841;26;20000;-92
2024/04/24 04:26:14;;;;;;;3.17;0.40;;;4.40;99.90;;;;;;5379651;26;20001;-92
2024/04/24 04:28:40;;;;;;;4.80;0.35;;;4.30;99.90;;;;;;5362612;26;20077;-91
2024/04/24 04:31:06;;;;;;;3.65;0.50;;;4.30;99.90;;;;;;5372561;26;20012;-92
2024/04/24 04:33:31;;;;;;;1.83;0.40;;;4.20;99.90;;;;;;5383094;26;20019;-93
2024/04/24 04:35:57;;;;;;;5.72;0.63;;;4.20;99.90;;;;;;5383678;26;20008;-91
2024/04/24 04:38:23;;;;;;;4.00;0.50;;;4.20;99.90;;;;;;5381901;26;19997;-92
2024/04/24 04:40:48;;;;;;;5.28;0.40;;;4.20;99.90;;;;;;5364822;26;20001;-91
2024/04/24 04:43:14;;;;;;;8.88;0.70;;;4.20;99.90;;;;;;5350054;26;20103;-92
2024/04/24 04:45:39;;;;;;;5.22;0.60;;;4.10;99.90;;;;;;5355712;26;19997;-92
2024/04/24 04:48:06;;;;;;;6.20;0.60;;;4.10;99.90;;;;;;5383856;26;20016;-91
2024/04/24 04:50:32;;;;;;;11.20;0.60;;;4.10;99.90;;;;;;5383612;26;20004;-92
2024/04/24 04:52:58;;;;;;;3.53;0.55;;;4.10;99.90;;;;;;5384242;26;20072;-92
2024/04/24 04:55:24;;;;;;;6.43;0.52;;;4.10;99.90;;;;;;5382243;26;20039;-91
2024/04/24 04:57:50;;;;;;;4.93;0.60;;;4.10;99.90;;;;;;5378598;26;20486;-92
2024/04/24 05:00:16;;;;;;;5.78;0.60;;;4.10;99.90;;;;;;5362609;26;20004;-92
2024/04/24 05:02:42;;;;;;;7.93;0.70;;;4.10;99.90;;;;;;5370486;26;20001;-92
2024/04/24 05:05:08;;;;;;;1.20;0.38;;;4.10;99.90;;;;;;5353203;26;20005;-92
2024/04/24 05:07:34;;;;;;;5.63;0.60;;;4.10;99.90;;;;;;5361827;26;19996;-91
2024/04/24 05:09:59;;;;;;;9.15;0.50;;;4.20;99.90;;;;;;5373063;26;20012;-92
2024/04/24 05:12:25;;;;;;;7.45;0.50;;;4.10;99.90;;;;;;5378922;26;20471;-91
2024/04/24 05:14:51;;;;;;;4.68;0.60;;;4.10;99.90;;;;;;5379724;26;20012;-91
2024/04/24 05:17:17;;;;;;;8.60;0.50;;;4.20;99.90;;;;;;5364841;26;19996;-93
2024/04/24 05:19:42;;;;;;;4.90;0.68;;;4.20;99.90;;;;;;5378326;26;20019;-91
2024/04/24 05:22:09;;;;;;;5.43;0.40;;;4.30;99.90;;;;;;5375586;26;20007;-92
2024/04/24 05:24:35;;;;;;;3.10;0.85;;;4.30;99.90;;;;;;5380129;26;20497;-91
2024/04/24 05:29:45;;;;;;;4.68;0.40;;;4.50;99.90;;;;;;5372458;26;20015;-92
2024/04/24 05:32:11;;;;;;;9.40;0.43;;;4.60;99.90;;;;;;5359886;26;20004;-92
2024/04/24 05:34:37;;;;;;;7.20;0.70;;;4.60;99.90;;;;;;5377285;26;20004;-91
2024/04/24 05:37:02;;;;;;;6.53;0.60;;;4.60;99.90;;;;;;5374624;26;20005;-91
2024/04/24 05:39:28;;;;;;;14.68;0.70;;;4.60;99.90;;;;;;5376141;26;19996;-91
2024/04/24 05:41:53;;;;;;;4.90;0.60;;;4.50;99.90;;;;;;5363554;26;20092;-92
2024/04/24 05:44:19;;;;;;;4.40;0.40;;;4.50;99.90;;;;;;5374390;26;20001;-92
2024/04/24 05:46:45;;;;;;;5.35;0.30;;;4.50;99.90;;;;;;5368155;26;20005;-91
2024/04/24 05:49:10;;;;;;;7.68;0.98;;;4.40;99.90;;;;;;5367234;26;20005;-91
2024/04/24 05:51:36;;;;;;;8.00;0.50;;;4.40;99.90;;;;;;5364354;26;20005;-91
2024/04/24 05:54:01;;;;;;;9.50;0.85;;;4.40;99.90;;;;;;5368602;26;20004;-92
2024/04/24 05:56:27;;;;;;;4.97;0.50;;;4.40;99.90;;;;;;5377520;26;19996;-92
2024/04/24 05:58:52;;;;;;;1.92;0.40;;;4.40;99.90;;;;;;5355934;26;20001;-92
2024/04/24 06:01:18;;;;;;;7.38;0.30;;;4.40;99.90;;;;;;5390849;26;20487;-91
2024/04/24 06:03:43;;;;;;;9.48;0.60;;;4.40;99.90;;;;;;5365550;26;20001;-91
2024/04/24 06:06:10;;;;;;;9.93;0.55;;;4.50;99.90;;;;;;5365928;26;20008;-92
2024/04/24 06:08:35;;;;;;;4.97;0.52;;;4.50;99.90;;;;;;5367047;26;20060;-92
2024/04/24 06:11:01;;;;;;;6.68;0.50;;;4.60;99.90;;;;;;5358220;26;19997;-93
2024/04/24 06:13:26;;;;;;;3.20;0.30;;;4.70;99.90;;;;;;5378281;26;20488;-92
2024/04/24 06:15:52;;;;;;;8.20;0.65;;;4.90;99.90;;;;;;5379164;26;20097;-91
2024/04/24 06:18:17;;;;;;;9.35;0.68;;;5.00;99.90;;;;;;5377572;26;20081;-92
2024/04/24 06:20:43;;;;;;;5.53;0.60;;;5.10;99.90;;;;;;5368556;26;20000;-90
2024/04/24 06:23:10;;;;;;;6.85;0.40;;;5.20;99.90;;;;;;5373589;26;20505;-91
2024/04/24 06:25:36;;;;;;;10.57;1.38;;;5.20;99.90;;;;;;5381892;26;19994;-90
2024/04/24 06:28:01;;;;;;;5.82;0.38;;;5.30;99.90;;;;;;5378259;26;20011;-91
2024/04/24 06:30:27;;;;;;;6.90;0.57;;;5.40;99.90;;;;;;5381482;26;20445;-91
2024/04/24 06:32:53;;;;;;;6.28;1.00;;;5.40;99.90;;;;;;5378894;26;20047;-91
2024/04/24 06:35:20;;;;;;;9.38;0.60;;;5.40;99.90;;;;;;5364199;26;20011;-92
2024/04/24 06:37:50;;;;;;;6.18;1.05;;;5.50;99.90;;;;;;5372441;26;20005;-91
2024/04/24 06:40:15;;;;;;;7.85;0.90;;;5.50;99.90;;;;;;5362822;26;20073;-90
2024/04/24 06:42:41;;;;;;;3.47;0.43;;;5.60;99.90;;;;;;5364023;26;20727;-91
2024/04/24 06:45:07;;;;;;;4.60;0.40;;;5.60;99.90;;;;;;5373726;26;20023;-92
2024/04/24 06:47:32;;;;;;;4.03;0.40;;;5.70;99.90;;;;;;5378797;26;20004;-92
2024/04/24 06:49:58;;;;;;;4.22;0.60;;;5.80;99.90;;;;;;5381179;26;20074;-92
2024/04/24 06:52:23;;;;;;;7.95;0.70;;;5.90;99.90;;;;;;5383315;26;20000;-92
2024/04/24 06:54:49;;;;;;;11.80;0.50;;;6.00;99.90;;;;;;5380497;26;20010;-92
2024/04/24 06:57:16;;;;;;;8.10;0.55;;;6.20;99.90;;;;;;5352317;26;20077;-92
2024/04/24 06:59:44;;;;;;;8.18;0.80;;;6.30;99.90;;;;;;5366396;26;20000;-92
2024/04/24 07:02:10;;;;;;;11.18;0.65;;;6.40;99.90;;;;;;5376300;26;20017;-91
2024/04/24 07:04:36;;;;;;;4.15;0.40;;;6.50;99.90;;;;;;5382584;26;20000;-92
2024/04/24 07:07:01;;;;;;;6.20;0.85;;;6.70;99.90;;;;;;5362833;26;20015;-92
2024/04/24 07:09:27;;;;;;;4.75;0.40;;;6.80;99.90;;;;;;5372781;26;20302;-92
2024/04/24 07:11:53;;;;;;;5.53;0.80;;;7.00;99.90;;;;;;5375825;26;20019;-89
2024/04/24 07:14:18;;;;;;;10.93;0.70;;;7.00;99.90;;;;;;5370733;26;20498;-91
2024/04/24 07:16:44;;;;;;;6.85;0.68;;;7.10;99.90;;;;;;5373392;26;20011;-91
2024/04/24 07:19:09;;;;;;;9.75;0.45;;;7.20;99.90;;;;;;5377009;26;19992;-91
2024/04/24 07:21:35;;;;;;;5.97;0.70;;;7.20;99.90;;;;;;5378049;26;20004;-90
2024/04/24 07:24:00;;;;;;;7.43;0.77;;;7.20;99.90;;;;;;5368834;26;20019;-90
2024/04/24 07:26:26;;;;;;;9.57;1.05;;;7.30;99.90;;;;;;5355273;26;20352;-92
2024/04/24 07:28:53;;;;;;;7.00;0.50;;;7.30;99.90;;;;;;5366457;26;20333;-92
2024/04/24 07:31:19;;;;;;;11.38;0.70;;;7.40;99.90;;;;;;5380627;26;20018;-92
2024/04/24 07:33:44;;;;;;;5.53;0.63;;;7.30;99.90;;;;;;5374192;26;19992;-91
2024/04/24 07:36:10;;;;;;;12.57;0.90;;;7.30;99.90;;;;;;5364340;26;20461;-91
2024/04/24 07:38:36;;;;;;;8.15;0.80;;;7.20;99.90;;;;;;5374646;26;19996;-91
2024/04/24 07:41:05;;;;;;;8.65;0.50;;;7.20;99.90;;;;;;5367947;26;20004;-90
2024/04/24 07:43:33;;;;;;;5.65;0.75;;;7.20;99.90;;;;;;5378511;26;20015;-93
2024/04/24 07:46:03;;;;;;;8.50;0.70;;;7.20;99.90;;;;;;5367296;26;20328;-93
2024/04/24 07:48:29;;;;;;;5.80;0.60;;;7.30;99.90;;;;;;5377636;26;20004;-93
2024/04/24 07:50:55;;;;;;;6.00;0.60;;;7.40;99.90;;;;;;5371664;26;20008;-93
2024/04/24 07:53:20;;;;;;;7.93;0.70;;;7.50;99.90;;;;;;5374186;26;20010;-91
2024/04/24 07:55:46;;;;;;;10.57;0.85;;;7.70;99.90;;;;;;5364538;26;20008;-93
2024/04/24 07:58:12;;;;;;;12.25;0.80;;;7.90;99.90;;;;;;5357377;26;20004;-94
2024/04/24 08:00:37;;;;;;;9.43;0.70;;;8.00;99.90;;;;;;5353360;26;20322;-93
2024/04/24 08:03:03;;;;;;;6.18;0.70;;;8.10;99.90;;;;;;5368318;26;20336;-92
2024/04/24 08:05:29;;;;;;;7.60;0.65;;;8.20;99.90;;;;;;5378043;26;20011;-91
2024/04/24 08:07:54;;;;;;;8.60;1.02;;;8.30;99.90;;;;;;5350545;26;20469;-93
2024/04/24 08:10:20;;;;;;;10.70;1.10;;;8.40;99.90;;;;;;5379932;26;20008;-92
2024/04/24 08:12:45;;;;;;;5.32;0.65;;;8.40;99.90;;;;;;5368888;26;20362;-93
2024/04/24 08:15:11;;;;;;;6.50;0.50;;;8.40;99.90;;;;;;5376357;26;20016;-93
2024/04/24 08:17:37;;;;;;;7.68;0.50;;;8.40;99.90;;;;;;5378235;26;20017;-94
2024/04/24 08:20:03;;;;;;;11.55;0.68;;;8.40;99.90;;;;;;5379846;26;19993;-93
2024/04/24 08:22:28;;;;;;;10.35;0.90;;;8.30;99.90;;;;;;5379916;26;20069;-92
2024/04/24 08:24:54;;;;;;;4.95;0.50;;;8.40;99.90;;;;;;5377663;26;20004;-93
2024/04/24 08:27:19;;;;;;;7.72;0.60;;;8.40;99.90;;;;;;5364176;26;20066;-92
2024/04/24 08:29:45;;;;;;;10.82;0.55;;;8.20;99.90;;;;;;5360017;26;20457;-92
2024/04/24 08:32:11;;;;;;;4.03;0.47;;;8.10;99.90;;;;;;5368168;26;20055;-91
2024/04/24 08:34:36;;;;;;;12.10;0.75;;;8.00;99.90;;;;;;5378861;26;20011;-94
2024/04/24 08:37:02;;;;;;;3.13;0.40;;;7.70;99.90;;;;;;5355206;26;20016;-93
2024/04/24 08:39:28;;;;;;;7.45;0.60;;;7.40;99.90;;;;;;5357357;26;20009;-93
2024/04/24 08:41:56;;;;;;;10.88;0.80;;;7.00;99.90;;;;;;5380590;26;20004;-93
2024/04/24 08:44:26;;;;;;;9.15;0.82;;;6.80;99.90;;;;;;5375001;26;19997;-93
2024/04/24 08:46:54;;;;;;;2.95;0.50;;;6.80;99.90;;;;;;5367426;26;20050;-92
2024/04/24 08:49:21;;;;;;;7.63;0.45;;;7.00;99.90;;;;;;5377922;26;19997;-94
2024/04/24 08:51:47;;;;;;;7.82;0.40;;;7.20;99.90;;;;;;5370108;26;20015;-94
2024/04/24 08:54:18;;;;;;;4.20;0.35;;;7.50;99.90;;;;;;5373838;26;20024;-93
2024/04/24 08:57:07;;;;;;;6.35;0.30;;;7.70;99.90;;;;;;5375470;26;20015;-93
2024/04/24 08:59:36;;;;;;;3.85;0.40;;;7.80;99.90;;;;;;5371580;26;20024;-94
2024/04/24 09:02:09;;;;;;;5.25;0.60;;;8.00;99.90;;;;;;5368036;26;20001;-94
2024/04/24 09:04:36;;;;;;;4.40;0.45;;;8.10;99.90;;;;;;5382614;26;20014;-94
2024/04/24 09:07:02;;;;;;;7.22;0.47;;;8.20;99.90;;;;;;5368923;26;20000;-93
2024/04/24 09:09:29;;;;;;;4.97;0.63;;;8.20;99.90;;;;;;5358327;26;20042;-94
2024/04/24 09:12:00;;;;;;;10.45;0.77;;;8.20;99.90;;;;;;5377061;26;20000;-93
2024/04/24 09:14:27;;;;;;;5.28;0.30;;;8.30;99.90;;;;;;5375604;26;20047;-94
2024/04/24 09:16:53;;;;;;;3.40;0.30;;;8.40;99.90;;;;;;5379566;26;20004;-93
2024/04/24 09:19:19;;;;;;;4.32;0.30;;;8.50;99.90;;;;;;5362888;26;20000;-93
2024/04/24 09:21:46;;;;;;;5.45;0.47;;;8.50;99.90;;;;;;5375394;26;20054;-94
2024/04/24 09:24:15;;;;;;;3.80;0.47;;;8.60;99.90;;;;;;5376967;26;19999;-92
2024/04/24 09:26:40;;;;;;;1.65;0.20;;;8.60;99.90;;;;;;5378229;26;20000;-93
2024/04/24 09:29:06;;;;;;;3.95;0.30;;;8.60;99.90;;;;;;5373590;26;20016;-94
2024/04/24 09:31:32;;;;;;;0.82;0.20;;;8.50;99.90;;;;;;5359619;26;20005;-93
2024/04/24 09:33:58;;;;;;;3.08;0.20;;;8.30;99.90;;;;;;5400689;26;20547;-93
2024/04/24 09:36:28;;;;;;;2.97;0.20;;;8.20;99.90;;;;;;5365822;26;20020;-93
2024/04/24 09:38:54;;;;;;;2.65;0.30;;;8.20;99.90;;;;;;5378361;26;20004;-94
2024/04/24 09:41:20;;;;;;;2.20;0.17;;;8.20;99.90;;;;;;5369253;26;20008;-93
2024/04/24 09:43:46;;;;;;;2.25;0.20;;;8.30;99.90;;;;;;5376955;26;20370;-94
2024/04/24 09:46:12;;;;;;;3.03;0.20;;;8.40;99.90;;;;;;5360620;26;20488;-93
2024/04/24 09:48:39;;;;;;;2.90;0.40;;;8.50;99.90;;;;;;5364430;26;20440;-93
2024/04/24 09:51:10;;;;;;;5.20;0.50;;;8.40;99.90;;;;;;5364871;26;20032;-94
2024/04/24 09:53:36;;;;;;;2.58;0.30;;;8.40;99.90;;;;;;5399901;26;19996;-93
2024/04/24 09:56:15;;;;;;;2.35;0.30;;;8.30;99.90;;;;;;5373412;26;20031;-93
2024/04/24 09:58:43;;;;;;;2.42;0.22;;;8.40;99.90;;;;;;5377613;26;20000;-94
2024/04/24 10:01:12;;;;;;;2.78;0.30;;;8.50;99.90;;;;;;5374815;26;20077;-93
2024/04/24 10:03:40;;;;;;;3.15;0.28;;;8.70;99.90;;;;;;5371238;26;20000;-92
2024/04/24 10:06:08;;;;;;;2.47;0.20;;;9.00;99.90;;;;;;5366292;26;20069;-93
2024/04/24 10:08:38;;;;;;;6.72;0.50;;;9.30;99.90;;;;;;5397144;26;20012;-95
2024/04/24 10:11:07;;;;;;;3.88;0.30;;;9.40;99.90;;;;;;5374064;26;19993;-96
2024/04/24 10:13:37;;;;;;;4.53;0.55;;;9.50;99.90;;;;;;5374294;26;20004;-94
2024/04/24 10:16:04;;;;;;;3.55;0.40;;;9.50;99.90;;;;;;5372182;26;20032;-95
2024/04/24 10:18:32;;;;;;;5.43;0.40;;;9.40;99.90;;;;;;5398827;26;20033;-95
2024/04/24 10:20:58;;;;;;;7.63;0.63;;;9.40;99.90;;;;;;5369520;26;20445;-94
2024/04/24 10:23:29;;;;;;;5.57;0.50;;;9.50;99.90;;;;;;5367751;26;20015;-96
2024/04/24 10:25:55;;;;;;;7.43;0.40;;;9.70;99.90;;;;;;5372955;26;19996;-95
2024/04/24 10:28:23;;;;;;;9.32;0.75;;;9.80;99.90;;;;;;5373512;26;20080;-95
2024/04/24 10:30:50;;;;;;;4.43;0.50;;;9.80;99.90;;;;;;5370492;26;20012;-95
2024/04/24 10:33:17;;;;;;;4.60;0.75;;;9.60;99.90;;;;;;5374872;26;20031;-95
2024/04/24 10:35:43;;;;;;;2.95;0.30;;;9.50;99.90;;;;;;5375862;26;20003;-95
2024/04/24 10:38:09;;;;;;;2.35;0.28;;;9.60;99.90;;;;;;5372703;26;20078;-95
2024/04/24 10:40:35;;;;;;;1.52;0.20;;;9.60;99.90;;;;;;5373372;26;20011;-96
2024/04/24 10:43:06;;;;;;;2.88;0.20;;;9.70;99.90;;;;;;5372774;26;20028;-96
2024/04/24 10:45:38;;;;;;;1.70;0.30;;;9.80;99.90;;;;;;5373823;26;20004;-96
2024/04/24 10:48:05;;;;;;;5.97;0.47;;;10.00;99.90;;;;;;5367077;26;20065;-94
2024/04/24 10:50:33;;;;;;;3.88;0.50;;;10.30;99.90;;;;;;5365100;26;20004;-94
2024/04/24 10:53:02;;;;;;;6.07;0.50;;;10.40;99.90;;;;;;5368473;26;20015;-95
2024/04/24 10:55:28;;;;;;;4.80;0.32;;;10.30;99.90;;;;;;5379023;26;20000;-96
2024/04/24 10:57:55;;;;;;;6.18;0.52;;;10.10;99.90;;;;;;5370378;26;20004;-95
2024/04/24 11:00:28;;;;;;;8.65;0.43;;;9.60;99.90;;;;;;5401543;26;20065;-96
2024/04/24 11:02:55;;;;;;;5.40;0.28;;;8.60;99.90;;;;;;5386830;26;20024;-95
2024/04/24 11:05:22;;;;;;;3.05;0.25;;;7.00;99.90;;;;;;5367961;26;20015;-93
2024/04/24 11:08:02;;;;;;;4.32;0.30;;;6.10;99.90;;;;;;5350190;26;20015;-94
2024/04/24 11:10:28;;;;;;;6.22;0.30;;;5.60;99.90;;;;;;5356539;26;20012;-93
2024/04/24 11:12:54;;;;;;;4.95;0.40;;;5.40;99.90;;;;;;5355829;26;20045;-95
2024/04/24 11:15:22;;;;;;;3.20;0.30;;;5.50;99.90;;;;;;5373426;26;20001;-95
2024/04/24 11:17:48;;;;;;;5.78;0.85;;;5.60;99.90;;;;;;5383451;26;20004;-95
2024/04/24 11:20:18;;;;;;;6.75;0.60;;;5.70;99.90;;;;;;5377230;26;20046;-96
2024/04/24 11:22:44;;;;;;;2.78;0.40;;;6.00;99.90;;;;;;5396084;26;20032;-96
2024/04/24 11:25:11;;;;;;;3.10;0.40;;;6.20;99.90;;;;;;5384885;26;20015;-96
2024/04/24 11:27:37;;;;;;;5.60;0.68;;;6.50;99.90;;;;;;5379311;26;20000;-95
2024/04/24 11:30:10;;;;;;;2.97;0.88;;;6.70;99.90;;;;;;5369242;26;20000;-95
2024/04/24 11:32:37;;;;;;;6.97;0.47;;;7.10;99.90;;;;;;5361092;26;20005;-96
2024/04/24 11:35:04;;;;;;;8.05;0.77;;;7.30;99.90;;;;;;5391644;26;20016;-95
2024/04/24 11:37:32;;;;;;;5.28;0.52;;;7.20;99.90;;;;;;5395573;26;19996;-96
2024/04/24 11:40:11;;;;;;;4.35;0.50;;;6.90;99.90;;;;;;5402487;26;19988;-96
2024/04/24 11:42:53;;;;;;;3.92;0.38;;;6.70;99.90;;;;;;5401620;26;19996;-95
2024/04/24 11:45:29;;;;;;;3.53;0.40;;;6.50;99.90;;;;;;5402606;26;20000;-96
2024/04/24 11:47:55;;;;;;;2.60;0.77;;;6.60;99.90;;;;;;5371186;26;20000;-96
2024/04/24 11:50:23;;;;;;;3.45;0.55;;;6.80;99.90;;;;;;5404440;26;20002;-96
2024/04/24 11:53:08;;;;;;;5.25;0.40;;;7.00;99.90;;;;;;5382742;26;20008;-96
2024/04/24 11:56:02;;;;;;;2.67;0.25;;;7.30;99.90;;;;;;5389473;26;19999;-96
2024/04/24 11:58:28;;;;;;;4.63;0.50;;;7.30;99.90;;;;;;5374690;26;20006;-96
2024/04/24 12:00:53;;;;;;;4.03;0.30;;;7.20;99.90;;;;;;5358188;26;20047;-95
2024/04/24 12:03:19;;;;;;;5.70;0.60;;;7.10;99.90;;;;;;5333614;26;20085;-95
2024/04/24 12:05:45;;;;;;;11.23;0.57;;;7.10;99.90;;;;;;5347345;26;20459;-95
2024/04/24 12:08:12;;;;;;;10.57;0.50;;;7.10;99.90;;;;;;5335369;26;20000;-96
2024/04/24 12:10:38;;;;;;;7.05;0.43;;;7.30;99.90;;;;;;5363313;26;20015;-96
2024/04/24 12:13:04;;;;;;;5.15;0.45;;;7.30;99.90;;;;;;5358832;26;19996;-95
2024/04/24 12:15:30;;;;;;;10.60;0.60;;;7.40;99.90;;;;;;5351202;26;20000;-95
2024/04/24 12:17:56;;;;;;;9.52;0.95;;;7.50;99.90;;;;;;5350049;26;20471;-95
2024/04/24 12:20:21;;;;;;;9.45;1.40;;;7.60;99.90;;;;;;5349462;26;20523;-96
2024/04/24 12:22:47;;;;;;;5.43;0.50;;;7.70;99.90;;;;;;5351690;26;20466;-96
2024/04/24 12:25:13;;;;;;;5.35;0.70;;;7.90;99.90;;;;;;5325638;26;20043;-96
2024/04/24 12:27:38;;;;;;;10.35;0.75;;;8.10;99.90;;;;;;5314412;26;20009;-96
2024/04/24 12:30:05;;;;;;;7.93;1.00;;;8.10;99.90;;;;;;5356816;26;20004;-96
2024/04/24 12:32:32;;;;;;;7.82;0.60;;;8.10;99.90;;;;;;5382402;26;20000;-96
2024/04/24 12:34:57;;;;;;;8.63;1.38;;;8.10;99.90;;;;;;5355004;26;20004;-96
2024/04/24 12:37:26;;;;;;;6.35;0.65;;;8.10;99.90;;;;;;5374253;26;20050;-96
2024/04/24 12:39:52;;;;;;;10.00;0.95;;;8.10;99.90;;;;;;5379400;26;20000;-96
2024/04/24 12:42:18;;;;;;;5.50;0.70;;;7.80;99.90;;;;;;5356638;26;19996;-95
2024/04/24 12:44:43;;;;;;;8.13;1.38;;;7.50;99.90;;;;;;5392406;26;19988;-96
2024/04/24 12:47:12;;;;;;;4.78;0.55;;;7.20;99.90;;;;;;5385584;26;20001;-94
2024/04/24 12:49:38;;;;;;;5.80;0.40;;;7.00;99.90;;;;;;5380633;26;19996;-95
2024/04/24 12:52:04;;;;;;;5.05;0.50;;;6.90;99.90;;;;;;5379389;26;20003;-95
2024/04/24 12:54:30;;;;;;;4.15;0.30;;;6.90;99.90;;;;;;5388585;26;20000;-96
2024/04/24 12:56:56;;;;;;;7.32;0.50;;;6.80;99.90;;;;;;5380456;26;19995;-96